Time;durP1;ratioP1;P1;durP2;ratioP2;P2;SDS_P1;SDS_P2;PMS_P1;PMS_P2;Temp;Humidity;BMP_temperature;BMP_pressure;BME280_temperature;BME280_humidity;BME280_pressure;Samples;Min_cycle;Max_cycle;Signal;HPM_P1;HPM_P2
2021/01/31 00:00:32;;;;;;;19.13;11.05;;;;;;;0.03;100.00;94231.34;985691;30;20027;-59
2021/01/31 00:01:03;;;;;;;18.30;9.85;;;;;;;0.06;100.00;94229.22;989428;30;20019;-60
2021/01/31 00:01:34;;;;;;;21.60;11.50;;;;;;;0.08;100.00;94234.31;996637;29;20327;-60
2021/01/31 00:02:04;;;;;;;19.33;10.63;;;;;;;0.11;100.00;94234.00;993110;29;20372;-60
2021/01/31 00:02:35;;;;;;;20.00;11.23;;;;;;;0.11;100.00;94234.00;993057;29;20059;-59
2021/01/31 00:03:09;;;;;;;19.65;11.13;;;;;;;0.03;100.00;94234.75;985714;30;20031;-59
2021/01/31 00:03:40;;;;;;;19.70;11.02;;;;;;;0.00;100.00;94237.69;985439;30;20042;-59
2021/01/31 00:04:11;;;;;;;18.05;10.63;;;;;;;0.01;100.00;94239.31;993026;29;20113;-59
2021/01/31 00:04:49;;;;;;;19.10;10.40;;;;;;;-0.01;100.00;94231.63;993725;29;20123;-58
2021/01/31 00:05:20;;;;;;;18.60;10.75;;;;;;;-0.02;100.00;94244.84;993026;29;20065;-59
2021/01/31 00:05:52;;;;;;;19.00;10.90;;;;;;;-0.04;100.00;94236.34;991700;29;20431;-59
2021/01/31 00:06:23;;;;;;;20.45;11.50;;;;;;;0.03;100.00;94237.38;989406;29;20028;-60
2021/01/31 00:06:55;;;;;;;21.65;12.02;;;;;;;0.02;100.00;94238.34;989396;30;20057;-60
2021/01/31 00:07:26;;;;;;;20.20;11.50;;;;;;;0.01;100.00;94238.50;992860;29;20467;-59
2021/01/31 00:07:57;;;;;;;18.17;10.45;;;;;;;0.01;100.00;94233.28;992888;29;20018;-60
2021/01/31 00:08:28;;;;;;;20.70;11.40;;;;;;;0.02;100.00;94235.75;978338;30;20028;-61
2021/01/31 00:09:00;;;;;;;21.58;11.32;;;;;;;0.02;100.00;94238.34;989417;30;20429;-60
2021/01/31 00:09:31;;;;;;;20.73;11.73;;;;;;;0.04;100.00;94236.41;985616;30;20451;-59
2021/01/31 00:10:01;;;;;;;19.38;11.07;;;;;;;0.03;100.00;94241.78;978069;30;20039;-60
2021/01/31 00:10:32;;;;;;;22.63;11.95;;;;;;;-0.02;100.00;94240.47;996812;29;20029;-60
2021/01/31 00:11:03;;;;;;;22.38;12.48;;;;;;;-0.23;100.00;94217.34;985602;30;20027;-60
2021/01/31 00:11:33;;;;;;;23.25;11.80;;;;;;;-0.11;100.00;94230.91;989303;30;20024;-59
2021/01/31 00:12:04;;;;;;;22.17;12.32;;;;;;;-0.05;100.00;94245.97;992997;29;20031;-59
2021/01/31 00:12:35;;;;;;;18.90;10.93;;;;;;;-0.04;100.00;94246.78;986897;30;20104;-59
2021/01/31 00:13:06;;;;;;;21.80;11.90;;;;;;;-0.04;100.00;94244.19;985639;30;20456;-60
2021/01/31 00:13:36;;;;;;;22.02;12.30;;;;;;;-0.08;100.00;94238.44;989346;30;20027;-59
2021/01/31 00:14:07;;;;;;;24.58;12.85;;;;;;;-0.03;100.00;94248.44;996687;29;20018;-59
2021/01/31 00:14:38;;;;;;;24.58;13.05;;;;;;;-0.06;100.00;94238.28;989282;30;20030;-59
2021/01/31 00:15:09;;;;;;;22.60;11.90;;;;;;;-0.07;100.00;94247.09;989394;30;20129;-60
2021/01/31 00:15:42;;;;;;;23.90;12.88;;;;;;;-0.05;100.00;94242.56;981973;30;20562;-59
2021/01/31 00:16:13;;;;;;;22.35;12.52;;;;;;;-0.09;100.00;94239.41;989181;30;20058;-59
2021/01/31 00:16:43;;;;;;;21.80;12.18;;;;;;;-0.05;100.00;94242.56;989291;29;20031;-59
2021/01/31 00:17:14;;;;;;;21.60;11.68;;;;;;;-0.07;100.00;94241.88;989379;30;20019;-60
2021/01/31 00:17:45;;;;;;;23.00;12.45;;;;;;;-0.03;100.00;94240.59;992938;29;20034;-59
2021/01/31 00:18:18;;;;;;;22.80;12.80;;;;;;;-0.08;100.00;94232.41;981781;30;20016;-60
2021/01/31 00:18:48;;;;;;;22.50;12.50;;;;;;;-0.01;100.00;94241.25;985603;30;20422;-59
2021/01/31 00:19:19;;;;;;;22.17;12.02;;;;;;;-0.06;100.00;94239.09;985820;30;20016;-59
2021/01/31 00:19:50;;;;;;;21.65;11.93;;;;;;;-0.07;100.00;94245.31;993016;29;20026;-59
2021/01/31 00:20:22;;;;;;;20.05;11.57;;;;;;;-0.01;100.00;94247.28;985514;30;20020;-59
2021/01/31 00:20:54;;;;;;;22.52;12.50;;;;;;;-0.04;100.00;94241.56;985571;30;20031;-58
2021/01/31 00:21:24;;;;;;;21.88;12.00;;;;;;;-0.03;100.00;94245.81;986696;29;20019;-59
2021/01/31 00:21:58;;;;;;;21.15;11.93;;;;;;;-0.02;100.00;94248.28;996783;29;20038;-58
2021/01/31 00:22:28;;;;;;;22.98;12.68;;;;;;;-0.02;100.00;94244.84;992950;29;20014;-59
2021/01/31 00:22:59;;;;;;;24.58;13.07;;;;;;;-0.05;100.00;94237.34;985525;30;20111;-59
2021/01/31 00:23:30;;;;;;;23.38;12.65;;;;;;;-0.02;100.00;94242.22;982007;30;20469;-60
2021/01/31 00:24:00;;;;;;;25.13;13.68;;;;;;;0.01;100.00;94244.53;1000549;29;20389;-59
2021/01/31 00:24:31;;;;;;;23.23;12.20;;;;;;;0.07;100.00;94237.88;985431;30;20034;-58
2021/01/31 00:25:03;;;;;;;23.73;12.52;;;;;;;-0.01;100.00;94243.88;985549;30;20036;-59
2021/01/31 00:25:34;;;;;;;21.60;12.65;;;;;;;-0.03;100.00;94243.22;993040;29;20076;-60
2021/01/31 00:26:05;;;;;;;23.52;12.88;;;;;;;-0.03;100.00;94241.41;989325;30;20031;-59
2021/01/31 00:26:35;;;;;;;23.10;12.18;;;;;;;-0.01;100.00;94243.88;989155;30;20019;-59
2021/01/31 00:27:06;;;;;;;20.88;12.23;;;;;;;0.00;100.00;94245.53;978259;30;20032;-59
2021/01/31 00:27:37;;;;;;;22.92;12.18;;;;;;;-0.07;100.00;94242.72;985600;30;20019;-59
2021/01/31 00:28:08;;;;;;;21.52;12.50;;;;;;;-0.21;100.00;94220.59;981895;30;20024;-59
2021/01/31 00:28:39;;;;;;;21.55;11.63;;;;;;;-0.04;100.00;94244.19;991268;29;20020;-59
2021/01/31 00:29:09;;;;;;;23.05;12.73;;;;;;;-0.03;100.00;94245.81;989179;30;20036;-59
2021/01/31 00:29:40;;;;;;;23.67;13.30;;;;;;;-0.04;100.00;94250.19;985485;30;20011;-59
2021/01/31 00:30:22;;;;;;;23.42;13.10;;;;;;;-0.01;100.00;94247.28;992955;29;20118;-59
2021/01/31 00:30:52;;;;;;;23.23;12.85;;;;;;;-0.04;100.00;94250.19;992799;29;20072;-60
2021/01/31 00:31:23;;;;;;;22.35;13.05;;;;;;;-0.07;100.00;94247.91;985663;29;20360;-59
2021/01/31 00:31:54;;;;;;;23.42;13.40;;;;;;;-0.05;100.00;94247.78;981919;30;20458;-60
2021/01/31 00:32:26;;;;;;;26.52;13.75;;;;;;;-0.04;100.00;94239.75;982195;30;20012;-59
2021/01/31 00:32:57;;;;;;;24.75;13.82;;;;;;;-0.02;100.00;94244.84;988883;30;20046;-59
2021/01/31 00:33:28;;;;;;;23.35;13.23;;;;;;;0.01;100.00;94247.16;985538;30;20039;-61
2021/01/31 00:33:59;;;;;;;23.45;12.52;;;;;;;-0.02;100.00;94244.84;992992;29;20391;-60
2021/01/31 00:34:29;;;;;;;23.83;13.63;;;;;;;-0.04;100.00;94254.63;989432;30;20055;-60
2021/01/31 00:35:00;;;;;;;23.77;13.02;;;;;;;-0.08;100.00;94242.84;992740;29;20027;-60
2021/01/31 00:35:33;;;;;;;24.17;13.20;;;;;;;-0.08;100.00;94246.28;981981;30;20098;-60
2021/01/31 00:36:04;;;;;;;24.55;13.85;;;;;;;-0.03;100.00;94251.03;978258;30;20056;-59
2021/01/31 00:36:34;;;;;;;24.58;14.02;;;;;;;-0.03;100.00;94251.03;981921;30;20029;-59
2021/01/31 00:37:07;;;;;;;24.40;13.25;;;;;;;-0.06;100.00;94256.56;989425;29;20168;-59
2021/01/31 00:37:38;;;;;;;23.52;12.70;;;;;;;-0.08;100.00;94248.06;987112;30;20035;-59
2021/01/31 00:38:09;;;;;;;24.48;12.93;;;;;;;-0.07;100.00;94249.69;993391;29;20031;-60
2021/01/31 00:38:40;;;;;;;24.30;13.15;;;;;;;-0.04;100.00;94246.78;995781;29;20049;-59
2021/01/31 00:39:10;;;;;;;25.13;13.32;;;;;;;-0.03;100.00;94248.44;989092;30;20483;-59
2021/01/31 00:39:43;;;;;;;26.40;14.23;;;;;;;-0.08;100.00;94235.84;989487;30;20042;-59
2021/01/31 00:40:14;;;;;;;27.15;14.60;;;;;;;0.00;100.00;94248.13;989011;29;20488;-59
2021/01/31 00:40:45;;;;;;;25.80;14.45;;;;;;;0.02;100.00;94250.56;981922;30;20035;-59
2021/01/31 00:41:16;;;;;;;22.08;12.55;;;;;;;-0.04;100.00;94252.81;985521;30;20028;-59
2021/01/31 00:41:46;;;;;;;24.10;13.35;;;;;;;-0.05;100.00;94245.16;985535;30;20023;-59
2021/01/31 00:42:19;;;;;;;23.20;12.65;;;;;;;0.00;100.00;94248.13;982085;30;20036;-60
2021/01/31 00:42:50;;;;;;;25.88;14.52;;;;;;;-0.04;100.00;94247.59;982007;30;20024;-59
2021/01/31 00:43:20;;;;;;;26.23;13.93;;;;;;;-0.06;100.00;94248.72;989533;29;20558;-60
2021/01/31 00:43:51;;;;;;;24.10;13.32;;;;;;;-0.05;100.00;94247.78;985218;30;20032;-59
2021/01/31 00:44:22;;;;;;;23.45;12.98;;;;;;;-0.03;100.00;94251.03;985638;30;20439;-59
2021/01/31 00:44:53;;;;;;;27.58;14.70;;;;;;;-0.05;100.00;94251.19;986435;30;20110;-59
2021/01/31 00:45:24;;;;;;;23.95;13.32;;;;;;;-0.03;100.00;94249.25;986242;30;20114;-59
2021/01/31 00:45:56;;;;;;;24.92;13.88;;;;;;;-0.05;100.00;94247.78;983014;30;20067;-59
2021/01/31 00:46:26;;;;;;;26.45;13.68;;;;;;;0.00;100.00;94253.34;986439;30;20465;-59
2021/01/31 00:46:57;;;;;;;23.80;13.60;;;;;;;-0.06;100.00;94251.34;993854;29;20056;-59
2021/01/31 00:47:28;;;;;;;23.65;13.07;;;;;;;-0.07;100.00;94260.97;986036;30;20507;-59
2021/01/31 00:47:59;;;;;;;28.95;15.77;;;;;;;-0.03;100.00;94253.66;982610;30;20496;-59
2021/01/31 00:48:30;;;;;;;27.60;15.23;;;;;;;0.03;100.00;94249.59;993845;29;20435;-60
2021/01/31 00:49:00;;;;;;;26.17;14.63;;;;;;;-0.03;100.00;94251.84;990011;30;20019;-59
2021/01/31 00:49:31;;;;;;;25.80;14.55;;;;;;;-0.11;100.00;94249.19;986298;30;20023;-60
2021/01/31 00:50:02;;;;;;;23.42;13.20;;;;;;;-0.10;100.00;94250.84;986309;30;20024;-59
2021/01/31 00:50:34;;;;;;;25.50;14.40;;;;;;;-0.08;100.00;94251.50;982722;30;20028;-59
2021/01/31 00:51:05;;;;;;;23.90;13.30;;;;;;;-0.09;100.00;94257.66;990056;30;20042;-61
2021/01/31 00:51:35;;;;;;;24.58;14.00;;;;;;;-0.08;100.00;94254.09;986186;30;20027;-59
2021/01/31 00:52:06;;;;;;;24.63;13.60;;;;;;;-0.07;100.00;94258.34;990009;30;20042;-59
2021/01/31 00:52:37;;;;;;;24.73;14.32;;;;;;;-0.11;100.00;94262.22;990044;30;20122;-59
2021/01/31 00:53:08;;;;;;;25.92;13.73;;;;;;;-0.11;100.00;94259.63;982735;30;20107;-60
2021/01/31 00:53:38;;;;;;;24.70;13.93;;;;;;;-0.07;100.00;94250.53;993549;29;20030;-59
2021/01/31 00:54:09;;;;;;;25.40;14.38;;;;;;;-0.06;100.00;94259.97;986161;30;20534;-59
2021/01/31 00:54:40;;;;;;;27.20;14.80;;;;;;;-0.06;100.00;94253.94;990111;30;20019;-59
2021/01/31 00:55:12;;;;;;;28.83;15.57;;;;;;;-0.05;100.00;94259.03;986341;30;20328;-59
2021/01/31 00:55:43;;;;;;;28.25;15.43;;;;;;;-0.08;100.00;94258.50;982460;30;20036;-59
2021/01/31 00:56:14;;;;;;;25.35;14.23;;;;;;;-0.08;100.00;94255.91;989913;30;20115;-60
2021/01/31 00:56:44;;;;;;;26.00;14.02;;;;;;;-0.11;100.00;94253.59;986331;30;20419;-59
2021/01/31 00:57:16;;;;;;;24.80;13.93;;;;;;;-0.11;100.00;94258.81;990038;30;20114;-59
2021/01/31 00:57:47;;;;;;;26.70;14.55;;;;;;;-0.09;100.00;94270.72;985737;30;20322;-59
2021/01/31 00:58:18;;;;;;;26.48;14.85;;;;;;;-0.08;100.00;94253.28;982481;30;20352;-59
2021/01/31 00:58:48;;;;;;;27.23;14.73;;;;;;;-0.05;100.00;94261.63;989959;30;20114;-61
2021/01/31 00:59:19;;;;;;;26.65;14.25;;;;;;;-0.05;100.00;94260.81;986294;30;20056;-61
2021/01/31 00:59:50;;;;;;;26.45;14.85;;;;;;;-0.09;100.00;94259.47;989859;30;20019;-59
2021/01/31 01:00:24;;;;;;;26.42;15.02;;;;;;;-0.10;100.00;94263.88;993608;29;20011;-59
2021/01/31 01:00:54;;;;;;;24.27;13.98;;;;;;;-0.09;100.00;94264.69;993872;29;20159;-59
2021/01/31 01:01:25;;;;;;;25.02;14.18;;;;;;;-0.11;100.00;94261.41;986402;30;20488;-60
2021/01/31 01:01:56;;;;;;;24.48;14.02;;;;;;;-0.12;100.00;94262.38;986151;30;20107;-60
2021/01/31 01:02:27;;;;;;;30.42;15.80;;;;;;;-0.06;100.00;94259.97;986175;30;20031;-61
2021/01/31 01:02:58;;;;;;;27.70;15.07;;;;;;;-0.03;100.00;94266.69;978981;30;20083;-59
2021/01/31 01:03:28;;;;;;;26.55;15.15;;;;;;;-0.05;100.00;94269.47;986246;30;20496;-61
2021/01/31 01:03:59;;;;;;;25.10;14.25;;;;;;;-0.08;100.00;94266.34;989863;30;20108;-59
2021/01/31 01:04:30;;;;;;;27.25;14.90;;;;;;;-0.08;100.00;94261.94;989834;30;20118;-59
2021/01/31 01:05:00;;;;;;;27.70;14.40;;;;;;;-0.08;100.00;94261.94;986299;30;20019;-59
2021/01/31 01:05:31;;;;;;;25.48;14.90;;;;;;;-0.08;100.00;94263.72;989984;30;20027;-59
2021/01/31 01:06:02;;;;;;;28.30;16.38;;;;;;;-0.07;100.00;94258.34;986113;30;20026;-59
2021/01/31 01:06:33;;;;;;;25.85;14.75;;;;;;;-0.09;100.00;94264.69;989887;30;20063;-60
2021/01/31 01:07:04;;;;;;;25.00;13.88;;;;;;;-0.09;100.00;94268.09;986266;30;20016;-59
2021/01/31 01:07:34;;;;;;;24.00;13.77;;;;;;;-0.08;100.00;94266.34;993595;29;20046;-60
2021/01/31 01:08:08;;;;;;;28.30;15.63;;;;;;;-0.05;100.00;94266.84;986249;30;20028;-59
2021/01/31 01:08:38;;;;;;;25.48;14.80;;;;;;;-0.03;100.00;94266.69;989816;30;20426;-59
2021/01/31 01:09:09;;;;;;;25.08;14.15;;;;;;;-0.06;100.00;94264.38;989976;30;20015;-60
2021/01/31 01:09:40;;;;;;;25.58;14.18;;;;;;;-0.06;100.00;94267.81;986266;30;20047;-59
2021/01/31 01:10:12;;;;;;;26.70;15.10;;;;;;;-0.08;100.00;94269.75;989754;30;20047;-60
2021/01/31 01:10:43;;;;;;;24.45;13.43;;;;;;;-0.11;100.00;94264.03;986208;30;20151;-59
2021/01/31 01:11:14;;;;;;;25.63;14.05;;;;;;;-0.13;100.00;94268.59;990083;30;20610;-59
2021/01/31 01:11:45;;;;;;;25.83;15.15;;;;;;;-0.08;100.00;94268.94;986275;30;20421;-60
2021/01/31 01:12:15;;;;;;;26.30;14.18;;;;;;;-0.11;100.00;94266.63;982506;30;20403;-59
2021/01/31 01:12:46;;;;;;;25.40;14.20;;;;;;;-0.12;100.00;94260.59;989953;30;20169;-59
2021/01/31 01:13:17;;;;;;;27.70;14.68;;;;;;;-0.07;100.00;94265.34;979013;30;20019;-59
2021/01/31 01:13:48;;;;;;;26.02;14.80;;;;;;;-0.10;100.00;94273.50;993711;29;20471;-58
2021/01/31 01:14:18;;;;;;;26.42;14.48;;;;;;;-0.12;100.00;94270.19;978884;30;20086;-59
2021/01/31 01:14:49;;;;;;;27.13;14.93;;;;;;;-0.11;100.00;94272.66;986210;30;20042;-59
2021/01/31 01:15:21;;;;;;;29.08;16.23;;;;;;;-0.06;100.00;94269.59;982610;30;20044;-59
2021/01/31 01:15:52;;;;;;;24.90;14.57;;;;;;;-0.03;100.00;94269.31;982693;30;20043;-59
2021/01/31 01:16:23;;;;;;;28.15;15.20;;;;;;;-0.03;100.00;94270.13;982488;30;20032;-59
2021/01/31 01:16:58;;;;;;;27.40;15.55;;;;;;;-0.06;100.00;94275.63;986174;30;20446;-59
2021/01/31 01:17:29;;;;;;;27.17;14.70;;;;;;;-0.13;100.00;94264.19;978918;30;20033;-59
2021/01/31 01:18:00;;;;;;;30.55;15.13;;;;;;;-0.09;100.00;94273.31;986245;30;20081;-59
2021/01/31 01:18:31;;;;;;;27.48;15.00;;;;;;;-0.08;100.00;94271.56;989742;30;20031;-59
2021/01/31 01:19:04;;;;;;;27.63;14.25;;;;;;;-0.02;100.00;94276.97;982428;30;20073;-58
2021/01/31 01:19:35;;;;;;;28.83;14.77;;;;;;;-0.05;100.00;94277.28;993611;29;20436;-59
2021/01/31 01:20:07;;;;;;;27.70;14.93;;;;;;;-0.05;100.00;94271.25;990100;30;20051;-59
2021/01/31 01:20:37;;;;;;;28.77;15.73;;;;;;;-0.07;100.00;94273.16;989698;30;20108;-59
2021/01/31 01:21:13;;;;;;;25.70;14.43;;;;;;;-0.09;100.00;94275.13;989865;29;20100;-58
2021/01/31 01:21:44;;;;;;;28.60;14.35;;;;;;;-0.10;100.00;94269.09;986375;30;20525;-59
2021/01/31 01:22:18;;;;;;;29.05;14.88;;;;;;;-0.08;100.00;94271.56;993673;29;20034;-59
2021/01/31 01:22:48;;;;;;;28.25;15.32;;;;;;;-0.08;100.00;94274.97;993367;29;20539;-59
2021/01/31 01:23:19;;;;;;;30.23;15.32;;;;;;;-0.07;100.00;94281.00;982465;30;20036;-59
2021/01/31 01:23:50;;;;;;;28.15;15.48;;;;;;;-0.08;100.00;94277.59;993558;29;20573;-59
2021/01/31 01:24:21;;;;;;;27.45;14.85;;;;;;;-0.09;100.00;94270.72;982578;30;20573;-59
2021/01/31 01:24:52;;;;;;;29.70;15.65;;;;;;;-0.07;100.00;94273.16;989645;30;20031;-59
2021/01/31 01:25:23;;;;;;;28.13;15.15;;;;;;;-0.11;100.00;94264.84;986174;30;20035;-59
2021/01/31 01:25:54;;;;;;;29.23;16.20;;;;;;;-0.02;100.00;94282.19;979233;30;20141;-59
2021/01/31 01:26:27;;;;;;;31.48;17.13;;;;;;;-0.01;100.00;94281.22;979388;30;20033;-59
2021/01/31 01:26:58;;;;;;;29.00;15.48;;;;;;;-0.03;100.00;94266.69;982296;30;20061;-59
2021/01/31 01:27:29;;;;;;;28.20;16.00;;;;;;;-0.04;100.00;94278.91;982359;30;20048;-59
2021/01/31 01:28:00;;;;;;;31.52;15.93;;;;;;;-0.07;100.00;94278.38;979025;30;20048;-59
2021/01/31 01:28:31;;;;;;;29.63;15.02;;;;;;;-0.09;100.00;94275.94;982421;30;20036;-60
2021/01/31 01:29:02;;;;;;;32.13;16.67;;;;;;;-0.08;100.00;94274.97;982673;30;20036;-58
2021/01/31 01:29:32;;;;;;;30.00;15.38;;;;;;;-0.05;100.00;94277.28;983536;30;20028;-58
2021/01/31 01:30:05;;;;;;;30.70;16.33;;;;;;;-0.02;100.00;94282.19;972000;30;20110;-59
2021/01/31 01:30:36;;;;;;;29.92;15.20;;;;;;;-0.02;100.00;94278.75;978987;30;20052;-59
2021/01/31 01:31:18;;;;;;;26.25;14.60;;;;;;;-0.03;100.00;94275.34;978732;30;20071;-59
2021/01/31 01:31:49;;;;;;;28.63;15.05;;;;;;;-0.05;100.00;94276.47;981842;30;20032;-59
2021/01/31 01:32:20;;;;;;;30.40;14.93;;;;;;;-0.04;100.00;94275.47;982630;30;20552;-58
2021/01/31 01:32:50;;;;;;;29.60;15.95;;;;;;;-0.05;100.00;94273.88;989894;30;20032;-59
2021/01/31 01:33:21;;;;;;;30.05;15.30;;;;;;;-0.01;100.00;94272.56;982220;30;20048;-59
2021/01/31 01:33:52;;;;;;;27.15;14.60;;;;;;;-0.07;100.00;94273.16;989822;30;20031;-59
2021/01/31 01:34:23;;;;;;;28.83;15.73;;;;;;;-0.01;100.00;94278.59;978935;30;20060;-59
2021/01/31 01:34:54;;;;;;;27.42;14.50;;;;;;;0.01;100.00;94275.03;978830;30;20024;-60
2021/01/31 01:35:25;;;;;;;30.20;16.25;;;;;;;-0.04;100.00;94272.88;982317;30;20028;-60
2021/01/31 01:35:55;;;;;;;28.27;15.57;;;;;;;-0.02;100.00;94274.38;989752;30;20026;-60
2021/01/31 01:36:26;;;;;;;29.85;16.27;;;;;;;-0.08;100.00;94268.94;986203;30;20031;-60
2021/01/31 01:36:57;;;;;;;29.55;15.35;;;;;;;-0.10;100.00;94271.69;986243;30;20016;-59
2021/01/31 01:37:27;;;;;;;29.83;15.63;;;;;;;-0.06;100.00;94274.81;985957;30;20031;-59
2021/01/31 01:37:58;;;;;;;29.20;15.45;;;;;;;-0.04;100.00;94270.25;982532;30;20022;-59
2021/01/31 01:38:29;;;;;;;27.98;15.13;;;;;;;-0.03;100.00;94277.13;986197;30;20025;-60
2021/01/31 01:39:00;;;;;;;28.88;15.13;;;;;;;-0.04;100.00;94278.09;986169;30;20088;-59
2021/01/31 01:39:30;;;;;;;30.25;15.13;;;;;;;-0.03;100.00;94271.91;989730;30;20030;-59
2021/01/31 01:40:03;;;;;;;26.88;14.95;;;;;;;-0.03;100.00;94277.13;982465;30;20107;-59
2021/01/31 01:40:36;;;;;;;26.17;14.70;;;;;;;-0.26;100.00;94238.50;982627;30;20521;-58
2021/01/31 01:41:07;;;;;;;28.85;15.32;;;;;;;-0.07;100.00;94270.56;978753;30;20072;-58
2021/01/31 01:41:45;;;;;;;27.52;14.60;;;;;;;-0.08;100.00;94274.16;973132;30;20030;-58
2021/01/31 01:42:16;;;;;;;30.92;15.85;;;;;;;-0.07;100.00;94273.16;982544;30;20024;-58
2021/01/31 01:42:46;;;;;;;34.38;16.90;;;;;;;-0.09;100.00;94280.34;989917;30;20027;-59
2021/01/31 01:43:19;;;;;;;29.35;15.25;;;;;;;-0.07;100.00;94267.97;978876;30;20027;-59
2021/01/31 01:43:52;;;;;;;30.90;15.68;;;;;;;-0.09;100.00;94280.34;985842;30;20063;-58
2021/01/31 01:44:23;;;;;;;29.70;15.18;;;;;;;-0.09;100.00;94269.91;986124;30;20032;-59
2021/01/31 01:44:54;;;;;;;30.30;16.23;;;;;;;-0.07;100.00;94275.78;978947;30;20025;-59
2021/01/31 01:45:24;;;;;;;31.00;16.08;;;;;;;-0.03;100.00;94274.53;989894;30;20043;-59
2021/01/31 01:46:15;;;;;;;29.92;15.30;;;;;;;-0.06;100.00;94282.66;986011;30;20039;-58
2021/01/31 01:46:48;;;;;;;27.95;15.15;;;;;;;-0.04;100.00;94280.69;986238;30;20035;-58
2021/01/31 01:47:21;;;;;;;30.65;14.77;;;;;;;-0.06;100.00;94278.25;989681;30;20172;-58
2021/01/31 01:47:54;;;;;;;28.50;15.43;;;;;;;-0.06;100.00;94275.63;985673;30;20115;-58
2021/01/31 01:48:24;;;;;;;29.08;15.73;;;;;;;-0.11;100.00;94272.66;982476;30;20119;-59
2021/01/31 01:48:59;;;;;;;30.80;15.43;;;;;;;-0.07;100.00;94274.00;985925;30;20392;-58
2021/01/31 01:49:33;;;;;;;29.63;15.25;;;;;;;-0.08;100.00;94271.56;989818;30;20035;-58
2021/01/31 01:50:07;;;;;;;28.70;15.05;;;;;;;-0.08;100.00;94274.97;989552;30;20026;-59
2021/01/31 01:50:42;;;;;;;29.42;15.80;;;;;;;-0.07;100.00;94274.00;982368;30;20035;-58
2021/01/31 01:51:15;;;;;;;32.83;15.93;;;;;;;-0.06;100.00;94270.41;984024;30;20082;-58
2021/01/31 01:52:03;;;;;;;26.83;14.45;;;;;;;-0.07;100.00;94267.97;986198;30;20024;-58
2021/01/31 01:52:35;;;;;;;26.50;14.95;;;;;;;-0.06;100.00;94275.63;989812;30;20483;-58
2021/01/31 01:53:06;;;;;;;28.85;15.82;;;;;;;-0.04;100.00;94275.47;986072;30;20057;-58
2021/01/31 01:53:37;;;;;;;28.77;15.40;;;;;;;-0.08;100.00;94274.16;978844;30;20028;-58
2021/01/31 01:54:10;;;;;;;28.40;15.50;;;;;;;-0.11;100.00;94277.06;982200;30;20416;-58
2021/01/31 01:54:42;;;;;;;30.60;15.63;;;;;;;-0.07;100.00;94278.38;986049;30;20032;-58
2021/01/31 01:55:14;;;;;;;30.45;16.35;;;;;;;-0.04;100.00;94278.91;986056;30;20031;-59
2021/01/31 01:55:51;;;;;;;28.52;15.13;;;;;;;-0.03;100.00;94277.94;975147;30;20404;-59
2021/01/31 01:56:25;;;;;;;32.97;16.60;;;;;;;-0.03;100.00;94284.97;985188;30;20039;-59
2021/01/31 01:57:02;;;;;;;31.80;16.20;;;;;;;-0.06;100.00;94273.03;989680;30;20027;-58
2021/01/31 01:57:37;;;;;;;29.30;16.02;;;;;;;-0.07;100.00;94278.38;982294;30;20045;-58
2021/01/31 01:58:13;;;;;;;31.83;16.55;;;;;;;-0.08;100.00;94282.81;981726;30;20047;-59
2021/01/31 01:58:43;;;;;;;30.95;15.48;;;;;;;-0.05;100.00;94289.53;982299;30;20190;-59
2021/01/31 01:59:14;;;;;;;33.50;16.23;;;;;;;-0.02;100.00;94281.38;975187;30;20041;-59
2021/01/31 01:59:45;;;;;;;31.50;16.17;;;;;;;-0.07;100.00;94284.44;977647;30;20068;-58
2021/01/31 02:00:16;;;;;;;31.70;16.17;;;;;;;0.02;100.00;94284.47;989754;30;20030;-59
2021/01/31 02:00:47;;;;;;;28.25;15.55;;;;;;;-0.03;100.00;94284.97;982431;30;20495;-59
2021/01/31 02:01:18;;;;;;;29.23;15.77;;;;;;;-0.04;100.00;94283.31;978815;30;20408;-59
2021/01/31 02:02:02;;;;;;;29.80;16.00;;;;;;;-0.06;100.00;94285.25;986192;30;20055;-59
2021/01/31 02:02:37;;;;;;;30.75;15.68;;;;;;;-0.05;100.00;94276.47;978542;30;20032;-58
2021/01/31 02:03:10;;;;;;;31.27;16.13;;;;;;;-0.05;100.00;94279.09;982412;30;20032;-58
2021/01/31 02:03:41;;;;;;;29.90;15.45;;;;;;;-0.02;100.00;94283.97;982487;30;20183;-58
2021/01/31 02:04:12;;;;;;;30.92;15.48;;;;;;;-0.04;100.00;94278.09;975079;30;20109;-59
2021/01/31 02:04:43;;;;;;;27.50;15.15;;;;;;;-0.08;100.00;94285.41;982251;30;20028;-58
2021/01/31 02:05:14;;;;;;;27.70;15.00;;;;;;;-0.07;100.00;94276.63;986145;30;20102;-59
2021/01/31 02:05:47;;;;;;;29.58;15.77;;;;;;;-0.10;100.00;94281.31;982417;30;20550;-58
2021/01/31 02:06:21;;;;;;;28.00;15.13;;;;;;;-0.14;100.00;94282.59;982306;30;20039;-58
2021/01/31 02:06:52;;;;;;;27.52;14.70;;;;;;;-0.10;100.00;94291.75;985949;30;20035;-58
2021/01/31 02:07:23;;;;;;;31.10;17.05;;;;;;;-0.12;100.00;94284.09;978596;30;20029;-59
2021/01/31 02:07:54;;;;;;;28.58;16.02;;;;;;;-0.10;100.00;94283.94;982310;30;20032;-59
2021/01/31 02:08:25;;;;;;;32.53;17.25;;;;;;;-0.09;100.00;94286.38;982309;30;20032;-59
2021/01/31 02:08:58;;;;;;;32.22;16.63;;;;;;;-0.05;100.00;94290.31;978586;30;20072;-59
2021/01/31 02:09:29;;;;;;;30.80;16.08;;;;;;;0.00;100.00;94284.66;982988;30;20032;-60
2021/01/31 02:10:00;;;;;;;31.98;16.33;;;;;;;-0.06;100.00;94285.25;989770;30;20031;-59
2021/01/31 02:10:31;;;;;;;32.47;16.70;;;;;;;-0.02;100.00;94289.19;989617;29;20027;-59
2021/01/31 02:11:01;;;;;;;31.45;16.02;;;;;;;-0.05;100.00;94290.31;982315;30;20453;-59
2021/01/31 02:11:32;;;;;;;30.67;15.95;;;;;;;-0.06;100.00;94280.84;978711;30;20408;-59
2021/01/31 02:12:04;;;;;;;30.35;15.82;;;;;;;-0.05;100.00;94289.53;979009;30;20400;-59
2021/01/31 02:12:35;;;;;;;32.08;16.25;;;;;;;-0.03;100.00;94284.97;986332;30;20096;-58
2021/01/31 02:13:06;;;;;;;32.83;16.95;;;;;;;-0.06;100.00;94277.44;985932;30;20183;-59
2021/01/31 02:13:37;;;;;;;34.03;16.92;;;;;;;-0.03;100.00;94285.78;985925;30;20024;-58
2021/01/31 02:14:09;;;;;;;32.88;16.73;;;;;;;0.00;100.00;94284.66;986099;30;20437;-58
2021/01/31 02:14:41;;;;;;;32.67;17.40;;;;;;;0.04;100.00;94287.78;982349;30;20539;-59
2021/01/31 02:15:13;;;;;;;30.55;16.30;;;;;;;-0.01;100.00;94288.22;982216;30;20032;-60
2021/01/31 02:15:45;;;;;;;29.33;15.88;;;;;;;-0.05;100.00;94292.13;997079;29;20106;-60
2021/01/31 02:16:27;;;;;;;29.95;16.15;;;;;;;-0.04;100.00;94285.91;986034;30;20019;-61
2021/01/31 02:17:05;;;;;;;30.33;16.13;;;;;;;-0.07;100.00;94283.59;985829;30;20082;-60
2021/01/31 02:17:44;;;;;;;27.02;14.93;;;;;;;-0.06;100.00;94291.28;979915;30;20098;-60
2021/01/31 02:18:32;;;;;;;28.42;14.82;;;;;;;-0.04;100.00;94288.53;975138;30;20025;-60
2021/01/31 02:19:22;;;;;;;28.70;14.82;;;;;;;-0.05;100.00;94286.91;985865;30;20058;-60
2021/01/31 02:20:02;;;;;;;28.05;14.82;;;;;;;-0.02;100.00;94291.81;993480;29;20031;-60
2021/01/31 02:20:43;;;;;;;29.40;15.50;;;;;;;-0.05;100.00;94292.13;989775;30;20411;-61
2021/01/31 02:21:31;;;;;;;29.00;15.00;;;;;;;-0.07;100.00;94283.59;985840;30;20127;-60
2021/01/31 02:22:11;;;;;;;29.45;15.82;;;;;;;-0.07;100.00;94294.03;989761;30;20127;-60
2021/01/31 02:23:12;;;;;;;27.02;14.90;;;;;;;-0.04;100.00;94288.53;986106;30;20081;-60
2021/01/31 02:24:00;;;;;;;28.95;14.85;;;;;;;-0.05;100.00;94282.50;992063;29;20037;-60
2021/01/31 02:24:41;;;;;;;30.10;15.30;;;;;;;-0.04;100.00;94284.13;978825;30;20088;-60
2021/01/31 02:25:31;;;;;;;30.88;15.25;;;;;;;-0.03;100.00;94284.97;982208;30;20027;-59
2021/01/31 02:26:12;;;;;;;32.42;15.88;;;;;;;-0.09;100.00;94280.34;982240;30;20044;-59
2021/01/31 02:27:00;;;;;;;33.63;16.30;;;;;;;-0.06;100.00;94288.69;989719;30;20035;-60
2021/01/31 02:27:50;;;;;;;30.30;15.68;;;;;;;-0.08;100.00;94287.22;986499;30;20076;-60
2021/01/31 02:28:38;;;;;;;33.50;16.13;;;;;;;-0.05;100.00;94284.31;993515;29;20027;-61
2021/01/31 02:29:26;;;;;;;32.45;15.60;;;;;;;-0.02;100.00;94282.19;986051;30;20027;-59
2021/01/31 02:30:13;;;;;;;31.40;15.75;;;;;;;-0.07;100.00;94274.00;982247;30;20475;-59